createdAt,value
2023-02-14T00:01:45.034Z,8.80
2023-02-14T00:04:13.702Z,9.60
2023-02-14T00:06:42.050Z,8.65
2023-02-14T00:09:12.950Z,9.50
2023-02-14T00:11:42.091Z,9.48
2023-02-14T00:14:28.556Z,9.20
2023-02-14T00:16:58.217Z,9.23
2023-02-14T00:19:26.770Z,8.93
2023-02-14T00:21:55.108Z,8.25
2023-02-14T00:24:25.806Z,7.75
2023-02-14T00:26:54.444Z,8.80
2023-02-14T00:29:25.119Z,8.80
2023-02-14T00:31:53.591Z,9.70
2023-02-14T00:34:23.544Z,8.73
2023-02-14T00:36:52.028Z,9.05
2023-02-14T00:39:20.960Z,8.38
2023-02-14T00:41:49.097Z,9.00
2023-02-14T00:44:18.420Z,8.60
2023-02-14T00:46:46.668Z,9.00
2023-02-14T00:49:15.053Z,7.47
2023-02-14T00:51:44.736Z,8.48
2023-02-14T00:54:12.998Z,8.57
2023-02-14T00:56:41.323Z,9.02
2023-02-14T00:59:10.980Z,8.10
2023-02-14T01:01:40.273Z,8.60
2023-02-14T01:04:08.762Z,8.88
2023-02-14T01:06:36.998Z,8.82
2023-02-14T01:09:06.760Z,8.80
2023-02-14T01:11:35.137Z,8.98
2023-02-14T01:14:03.618Z,9.15
2023-02-14T01:17:36.682Z,9.02
2023-02-14T01:20:05.531Z,8.95
2023-02-14T01:42:36.847Z,8.40
2023-02-14T01:45:10.028Z,8.02
2023-02-14T01:47:42.325Z,7.90
2023-02-14T01:50:13.256Z,8.55
2023-02-14T01:52:46.894Z,8.10
2023-02-14T01:55:19.897Z,8.30
2023-02-14T01:57:56.883Z,7.75
2023-02-14T02:00:42.789Z,7.97
2023-02-14T02:03:11.896Z,7.90
2023-02-14T02:05:45.800Z,7.78
2023-02-14T02:08:14.475Z,8.68
2023-02-14T02:10:42.704Z,8.03
2023-02-14T02:13:17.884Z,7.40
2023-02-14T02:15:56.419Z,7.80
2023-02-14T02:18:33.211Z,8.13
2023-02-14T02:21:30.388Z,8.20
2023-02-14T02:24:17.350Z,9.20
2023-02-14T02:27:32.958Z,8.88
2023-02-14T02:30:45.426Z,8.47
2023-02-14T02:33:56.361Z,7.80
2023-02-14T02:36:53.879Z,8.05
2023-02-14T02:39:41.278Z,9.25
2023-02-14T02:42:23.354Z,7.97
2023-02-14T02:45:00.956Z,7.75
2023-02-14T02:47:33.313Z,8.00
2023-02-14T02:50:27.422Z,7.03
2023-02-14T02:53:06.299Z,7.40
2023-02-14T02:56:03.335Z,7.40
2023-02-14T02:58:37.858Z,7.60
2023-02-14T03:01:10.999Z,7.60
2023-02-14T03:03:59.093Z,7.78
2023-02-14T03:06:27.660Z,7.80
2023-02-14T03:08:57.295Z,7.77
2023-02-14T03:11:27.045Z,7.97
2023-02-14T03:14:09.433Z,8.20
2023-02-14T03:16:47.576Z,7.50
2023-02-14T03:20:00.537Z,7.53
2023-02-14T03:22:42.000Z,7.45
2023-02-14T03:25:20.037Z,7.60
2023-02-14T03:27:54.382Z,7.50
2023-02-14T03:30:34.605Z,8.10
2023-02-14T03:33:06.654Z,6.82
2023-02-14T03:35:41.517Z,7.40
2023-02-14T03:38:15.804Z,6.82
2023-02-14T03:40:54.797Z,7.80
2023-02-14T03:43:28.346Z,7.60
2023-02-14T03:46:02.355Z,7.30
2023-02-14T03:48:33.273Z,7.15
2023-02-14T03:51:02.938Z,6.72
2023-02-14T03:53:36.064Z,7.38
2023-02-14T03:56:14.085Z,7.60
2023-02-14T03:58:46.073Z,7.40
2023-02-14T04:01:19.483Z,7.32
2023-02-14T04:03:48.505Z,6.70
2023-02-14T04:06:18.995Z,6.60
2023-02-14T04:08:47.545Z,6.80
2023-02-14T04:11:17.147Z,6.40
2023-02-14T04:13:45.579Z,7.57
2023-02-14T04:16:13.984Z,7.47
2023-02-14T04:18:59.533Z,6.75
2023-02-14T04:21:27.963Z,6.57
2023-02-14T04:23:56.261Z,6.90
2023-02-14T04:26:25.849Z,6.30
2023-02-14T04:28:54.161Z,6.90
2023-02-14T04:31:22.491Z,6.75
2023-02-14T04:33:51.497Z,6.40
2023-02-14T04:36:19.780Z,6.05
2023-02-14T04:38:48.050Z,6.50
2023-02-14T04:41:16.289Z,6.43
2023-02-14T04:43:45.907Z,6.18
2023-02-14T04:46:14.611Z,6.25
2023-02-14T04:48:44.205Z,6.10
2023-02-14T04:51:12.360Z,5.80
2023-02-14T04:53:40.656Z,6.00
2023-02-14T04:56:09.215Z,6.35
2023-02-14T04:58:37.536Z,5.70
2023-02-14T05:01:07.204Z,5.85
2023-02-14T05:03:37.260Z,6.38
2023-02-14T05:06:05.737Z,5.70
2023-02-14T05:08:33.935Z,5.85
2023-02-14T05:11:02.947Z,6.50
2023-02-14T05:13:31.968Z,5.50
2023-02-14T05:16:00.723Z,6.07
2023-02-14T05:18:30.339Z,5.45
2023-02-14T05:20:58.843Z,5.85
2023-02-14T05:23:27.206Z,5.68
2023-02-14T05:25:55.398Z,5.47
2023-02-14T05:28:24.050Z,5.90
2023-02-14T05:30:52.871Z,5.28
2023-02-14T05:33:21.201Z,5.93
2023-02-14T05:35:50.972Z,6.10
2023-02-14T05:38:19.175Z,6.20
2023-02-14T05:40:47.512Z,6.00
2023-02-14T05:43:15.661Z,6.10
2023-02-14T05:45:44.010Z,5.68
2023-02-14T05:48:12.439Z,5.32
2023-02-14T05:50:41.859Z,6.60
2023-02-14T05:53:11.431Z,5.47
2023-02-14T05:55:39.764Z,6.20
2023-02-14T05:58:08.546Z,6.07
2023-02-14T06:00:38.817Z,5.70
2023-02-14T06:03:08.311Z,5.32
2023-02-14T06:05:36.550Z,5.40
2023-02-14T06:08:04.803Z,5.90
2023-02-14T06:10:34.613Z,6.28
2023-02-14T06:13:03.080Z,6.30
2023-02-14T06:15:31.222Z,6.50
2023-02-14T06:17:59.508Z,5.25
2023-02-14T06:20:27.829Z,5.32
2023-02-14T06:22:56.210Z,5.67
2023-02-14T06:25:25.587Z,5.20
2023-02-14T06:27:57.941Z,4.75
2023-02-14T06:30:27.100Z,5.70
2023-02-14T06:32:55.625Z,5.60
2023-02-14T06:35:23.879Z,5.45
2023-02-14T06:37:52.140Z,4.97
2023-02-14T06:40:20.685Z,5.60
2023-02-14T06:42:48.979Z,5.50
2023-02-14T06:45:18.814Z,5.18
2023-02-14T06:47:47.390Z,5.53
2023-02-14T06:50:15.596Z,5.60
2023-02-14T06:52:44.524Z,4.97
2023-02-14T06:55:13.923Z,5.32
2023-02-14T06:57:42.249Z,5.60
2023-02-14T07:00:11.542Z,6.30
2023-02-14T07:02:41.306Z,5.60
2023-02-14T07:05:10.009Z,5.30
2023-02-14T07:07:38.239Z,5.30
2023-02-14T07:10:07.792Z,5.30
2023-02-14T07:12:36.015Z,5.07
2023-02-14T07:15:10.365Z,5.00
2023-02-14T07:17:40.368Z,5.47
2023-02-14T07:20:13.551Z,5.15
2023-02-14T07:22:41.769Z,5.35
2023-02-14T07:25:10.557Z,5.65
2023-02-14T07:27:39.361Z,5.50
2023-02-14T07:30:09.428Z,5.80
2023-02-14T07:32:38.629Z,5.80
2023-02-14T07:35:09.388Z,6.00
2023-02-14T07:37:37.783Z,5.55
2023-02-14T07:40:14.342Z,5.90
2023-02-14T07:42:44.021Z,5.50
2023-02-14T07:45:21.981Z,5.30
2023-02-14T07:47:51.966Z,6.07
2023-02-14T07:50:22.200Z,5.97
2023-02-14T07:52:50.660Z,5.28
2023-02-14T07:55:19.919Z,5.45
2023-02-14T07:57:49.285Z,6.50
2023-02-14T08:00:18.066Z,6.88
2023-02-14T08:02:46.424Z,6.63
2023-02-14T08:05:14.963Z,6.80
2023-02-14T08:07:45.133Z,6.97
2023-02-14T08:10:13.534Z,6.38
2023-02-14T08:12:59.880Z,7.10
2023-02-14T08:15:46.967Z,6.68
2023-02-14T08:18:15.656Z,6.47
2023-02-14T08:20:43.972Z,6.80
2023-02-14T08:23:13.709Z,6.93
2023-02-14T08:25:42.457Z,6.60
2023-02-14T08:28:11.177Z,6.25
2023-02-14T08:30:39.429Z,6.72
2023-02-14T08:33:07.872Z,6.65
2023-02-14T08:35:36.840Z,6.72
2023-02-14T08:38:05.858Z,6.93
2023-02-14T08:40:37.096Z,6.37
2023-02-14T08:43:05.513Z,6.20
2023-02-14T08:45:34.087Z,5.72
2023-02-14T08:48:03.904Z,6.50
2023-02-14T08:50:32.493Z,6.10
2023-02-14T08:53:00.999Z,7.07
2023-02-14T08:55:29.285Z,6.57
2023-02-14T08:58:00.632Z,7.22
2023-02-14T09:00:29.214Z,6.88
2023-02-14T09:02:57.586Z,6.80
2023-02-14T09:05:26.496Z,6.80
2023-02-14T09:07:56.012Z,7.00
2023-02-14T09:10:25.092Z,6.60
2023-02-14T09:12:53.567Z,7.30
2023-02-14T09:15:23.466Z,6.55
2023-02-14T09:17:52.194Z,7.82
2023-02-14T09:20:21.081Z,6.67
2023-02-14T09:22:49.440Z,5.85
2023-02-14T09:25:18.196Z,6.28
2023-02-14T09:27:46.413Z,6.45
2023-02-14T09:30:15.911Z,6.40
2023-02-14T09:32:45.545Z,6.05
2023-02-14T09:35:13.776Z,6.13
2023-02-14T09:37:59.731Z,6.30
2023-02-14T09:40:28.076Z,6.28
2023-02-14T09:43:07.893Z,6.17
2023-02-14T09:45:37.115Z,6.45
2023-02-14T09:48:09.119Z,6.65
2023-02-14T09:50:41.182Z,7.25
2023-02-14T09:53:19.637Z,6.93
2023-02-14T09:55:56.332Z,7.25
2023-02-14T09:58:31.399Z,6.93
2023-02-14T10:01:06.278Z,6.70
2023-02-14T10:03:49.841Z,6.63
2023-02-14T10:06:36.649Z,6.45
2023-02-14T10:09:14.213Z,6.28
2023-02-14T10:11:46.643Z,6.00
2023-02-14T10:14:19.264Z,6.90
2023-02-14T10:16:51.655Z,6.60
2023-02-14T10:19:25.277Z,5.63
2023-02-14T10:21:58.282Z,5.82
2023-02-14T10:24:29.232Z,5.53
2023-02-14T10:29:46.528Z,4.82
2023-02-14T10:32:20.040Z,5.53
2023-02-14T10:34:51.159Z,5.25
2023-02-14T10:37:41.743Z,5.70
2023-02-14T10:40:24.745Z,5.53
2023-02-14T10:43:00.832Z,5.15
2023-02-14T10:45:37.791Z,4.80
2023-02-14T10:48:16.638Z,5.40
2023-02-14T10:50:53.724Z,5.20
2023-02-14T10:53:29.244Z,5.40
2023-02-14T10:56:01.625Z,5.35
2023-02-14T10:58:34.751Z,4.75
2023-02-14T11:01:08.062Z,4.40
2023-02-14T11:03:40.402Z,5.00
2023-02-14T11:06:12.791Z,5.10
2023-02-14T11:08:42.391Z,5.65
2023-02-14T11:11:18.366Z,5.70
2023-02-14T11:13:47.271Z,4.90
2023-02-14T11:16:29.854Z,5.05
2023-02-14T11:19:10.863Z,5.80
2023-02-14T11:21:42.169Z,5.00
2023-02-14T11:24:20.277Z,5.50
2023-02-14T11:26:50.351Z,4.80
2023-02-14T11:29:26.091Z,4.82
2023-02-14T11:31:54.767Z,5.40
2023-02-14T11:34:36.791Z,5.72
2023-02-14T11:37:25.157Z,5.15
2023-02-14T11:39:55.371Z,5.20
2023-02-14T11:42:37.065Z,4.90
2023-02-14T11:45:07.275Z,6.07
2023-02-14T11:47:43.016Z,5.35
2023-02-14T11:50:24.709Z,5.63
2023-02-14T11:52:56.971Z,5.32
2023-02-14T11:55:29.321Z,5.60
2023-02-14T11:57:58.650Z,5.00
2023-02-14T12:00:27.867Z,5.47
2023-02-14T12:02:57.937Z,5.18
2023-02-14T12:05:30.276Z,4.90
2023-02-14T12:08:02.172Z,5.50
2023-02-14T12:10:31.720Z,4.65
2023-02-14T12:13:02.285Z,4.63
2023-02-14T12:15:36.886Z,5.05
2023-02-14T12:18:34.841Z,5.70
2023-02-14T12:21:21.518Z,4.90
2023-02-14T12:24:01.432Z,4.90
2023-02-14T12:26:33.015Z,5.87
2023-02-14T12:29:09.761Z,5.30
2023-02-14T12:31:38.026Z,5.32
2023-02-14T12:34:06.853Z,5.30
2023-02-14T12:37:11.917Z,5.45
2023-02-14T12:39:55.817Z,5.80
2023-02-14T12:42:38.123Z,5.90
2023-02-14T12:45:14.680Z,5.80
2023-02-14T12:47:53.583Z,4.80
2023-02-14T12:50:34.766Z,5.32
2023-02-14T12:53:38.005Z,5.20
2023-02-14T12:56:15.975Z,5.40
2023-02-14T12:58:56.155Z,5.00
2023-02-14T13:01:50.624Z,5.75
2023-02-14T13:04:44.157Z,5.38
2023-02-14T13:07:24.560Z,5.30
2023-02-14T13:09:59.530Z,5.50
2023-02-14T13:12:39.414Z,5.10
2023-02-14T13:15:20.107Z,6.18
2023-02-14T13:17:52.144Z,5.63
2023-02-14T13:20:42.880Z,5.18
2023-02-14T13:23:16.865Z,5.55
2023-02-14T13:25:50.093Z,6.27
2023-02-14T13:28:21.230Z,5.20
2023-02-14T13:30:50.664Z,5.90
2023-02-14T13:33:34.835Z,5.72
2023-02-14T13:36:07.765Z,5.38
2023-02-14T13:38:44.087Z,5.00
2023-02-14T13:41:13.434Z,5.90
2023-02-14T13:43:48.960Z,5.00
2023-02-14T13:46:20.704Z,5.30
2023-02-14T13:49:00.981Z,5.65
2023-02-14T13:51:44.849Z,5.60
2023-02-14T13:54:33.187Z,5.35
2023-02-14T13:57:02.980Z,5.20
2023-02-14T13:59:34.545Z,5.28
2023-02-14T14:02:42.917Z,4.95
2023-02-14T14:05:48.698Z,5.40
2023-02-14T14:08:53.241Z,5.00
2023-02-14T14:11:59.638Z,5.00
2023-02-14T14:14:36.270Z,4.60
2023-02-14T14:17:20.773Z,8.20
2023-02-14T14:19:50.352Z,5.03
2023-02-14T14:22:19.935Z,4.93
2023-02-14T14:24:57.145Z,5.30
2023-02-14T14:27:30.713Z,5.40
2023-02-14T14:30:01.056Z,5.00
2023-02-14T14:32:32.481Z,5.30
2023-02-14T14:35:03.843Z,5.05
2023-02-14T14:37:34.081Z,4.60
2023-02-14T14:40:04.996Z,4.88
2023-02-14T14:42:37.524Z,5.20
2023-02-14T14:45:09.030Z,4.90
2023-02-14T14:47:44.613Z,4.50
2023-02-14T14:50:18.964Z,5.30
2023-02-14T14:52:49.952Z,4.80
2023-02-14T14:55:22.776Z,5.30
2023-02-14T14:57:52.797Z,4.90
2023-02-14T15:00:27.105Z,5.10
2023-02-14T15:03:17.373Z,5.30
2023-02-14T15:05:47.845Z,4.45
2023-02-14T15:08:22.869Z,4.50
2023-02-14T15:10:56.218Z,4.45
2023-02-14T15:13:49.773Z,4.97
2023-02-14T15:16:23.093Z,4.25
2023-02-14T15:18:55.389Z,4.40
2023-02-14T15:21:23.769Z,3.95
2023-02-14T15:23:53.867Z,4.10
2023-02-14T15:26:29.334Z,4.15
2023-02-14T15:29:00.348Z,3.90
2023-02-14T15:31:32.520Z,4.50
2023-02-14T15:34:03.204Z,4.07
2023-02-14T15:36:32.181Z,4.55
2023-02-14T15:39:01.872Z,4.15
2023-02-14T15:41:30.555Z,4.18
2023-02-14T15:43:59.472Z,4.47
2023-02-14T15:46:34.807Z,4.00
2023-02-14T15:49:11.204Z,4.60
2023-02-14T15:51:43.193Z,5.37
2023-02-14T15:54:22.166Z,4.70
2023-02-14T15:56:53.762Z,4.85
2023-02-14T15:59:26.320Z,4.45
2023-02-14T16:01:58.603Z,4.50
2023-02-14T16:04:30.182Z,5.03
2023-02-14T16:07:09.250Z,5.07
2023-02-14T16:09:37.826Z,4.57
2023-02-14T16:12:31.024Z,4.73
2023-02-14T16:15:10.583Z,4.70
2023-02-14T16:17:40.134Z,4.63
2023-02-14T16:20:38.836Z,4.80
2023-02-14T16:23:25.474Z,5.38
2023-02-14T16:25:54.534Z,4.90
2023-02-14T16:28:23.219Z,4.80
2023-02-14T16:30:56.870Z,4.97
2023-02-14T16:33:28.306Z,5.30
2023-02-14T16:36:03.776Z,4.32
2023-02-14T16:38:35.194Z,5.05
2023-02-14T16:41:04.469Z,5.45
2023-02-14T16:43:32.763Z,4.60
2023-02-14T16:46:01.058Z,5.07
2023-02-14T16:48:29.447Z,5.00
2023-02-14T16:50:59.442Z,5.70
2023-02-14T16:53:29.415Z,5.07
2023-02-14T16:55:58.783Z,5.10
2023-02-14T16:58:33.089Z,5.10
2023-02-14T17:01:01.671Z,4.90
2023-02-14T17:03:30.142Z,5.10
2023-02-14T17:06:01.743Z,5.30
2023-02-14T17:08:30.567Z,5.20
2023-02-14T17:11:01.518Z,5.97
2023-02-14T17:13:33.436Z,5.53
2023-02-14T17:16:02.596Z,5.40
2023-02-14T17:18:34.005Z,6.00
2023-02-14T17:21:04.994Z,7.15
2023-02-14T17:23:33.268Z,7.13
2023-02-14T17:26:01.562Z,6.53
2023-02-14T17:28:30.105Z,6.13
2023-02-14T17:31:00.690Z,6.13
2023-02-14T17:33:30.465Z,6.72
2023-02-14T17:36:06.784Z,6.10
2023-02-14T17:38:35.962Z,6.00
2023-02-14T17:41:12.920Z,5.78
2023-02-14T17:43:41.272Z,6.28
2023-02-14T17:46:09.772Z,6.63
2023-02-14T17:48:38.151Z,6.00
2023-02-14T17:51:10.097Z,5.90
2023-02-14T17:53:41.352Z,6.57
2023-02-14T17:56:12.705Z,6.75
2023-02-14T17:58:41.280Z,6.75
2023-02-14T18:01:11.599Z,6.97
2023-02-14T18:03:40.489Z,6.68
2023-02-14T18:06:11.539Z,6.82
2023-02-14T18:08:42.023Z,6.80
2023-02-14T18:11:11.946Z,6.93
2023-02-14T18:13:40.804Z,6.80
2023-02-14T18:16:11.432Z,7.38
2023-02-14T18:18:40.434Z,7.18
2023-02-14T18:21:11.968Z,7.72
2023-02-14T18:23:40.764Z,7.22
2023-02-14T18:26:11.989Z,6.90
2023-02-14T18:28:40.345Z,8.13
2023-02-14T18:31:10.771Z,8.10
2023-02-14T18:33:40.050Z,7.80
2023-02-14T18:36:12.268Z,7.70
2023-02-14T18:38:41.698Z,7.93
2023-02-14T18:41:12.116Z,7.35
2023-02-14T18:43:41.275Z,7.43
2023-02-14T18:46:11.626Z,7.93
2023-02-14T18:48:40.212Z,8.05
2023-02-14T18:51:11.490Z,8.52
2023-02-14T18:53:40.738Z,8.93
2023-02-14T18:56:12.187Z,9.00
2023-02-14T18:58:41.556Z,8.70
2023-02-14T19:01:10.479Z,8.60
2023-02-14T19:03:39.538Z,10.27
2023-02-14T19:06:10.138Z,10.73
2023-02-14T19:08:41.411Z,11.68
2023-02-14T19:11:11.708Z,13.20
2023-02-14T19:13:40.106Z,15.43
2023-02-14T19:16:12.828Z,19.38
2023-02-14T19:18:41.342Z,15.90
2023-02-14T19:21:12.339Z,15.30
2023-02-14T19:23:40.551Z,14.10
2023-02-14T19:26:13.407Z,15.35
2023-02-14T19:28:42.360Z,15.35
2023-02-14T19:31:11.389Z,15.15
2023-02-14T19:33:40.541Z,14.70
2023-02-14T19:36:12.916Z,14.27
2023-02-14T19:38:42.115Z,15.48
2023-02-14T19:41:16.665Z,16.80
2023-02-14T19:43:45.856Z,17.60
2023-02-14T19:46:14.212Z,19.50
2023-02-14T19:48:42.603Z,19.80
2023-02-14T19:51:17.052Z,17.63
2023-02-14T19:53:46.298Z,17.55
2023-02-14T19:56:19.669Z,18.25
2023-02-14T19:58:48.095Z,19.60
2023-02-14T20:01:25.091Z,23.00
2023-02-14T20:03:54.212Z,22.15
2023-02-14T20:06:24.999Z,22.55
2023-02-14T20:08:53.820Z,21.25
2023-02-14T20:11:30.249Z,22.17
2023-02-14T20:13:59.522Z,21.05
2023-02-14T20:16:29.661Z,19.95
2023-02-14T20:18:58.621Z,18.35
2023-02-14T20:21:28.724Z,18.70
2023-02-14T20:24:00.747Z,17.10
2023-02-14T20:26:30.088Z,17.10
2023-02-14T20:29:00.171Z,16.67
2023-02-14T20:31:28.616Z,16.70
2023-02-14T20:33:57.276Z,17.40
2023-02-14T20:36:27.626Z,16.27
2023-02-14T20:38:56.585Z,17.52
2023-02-14T20:41:26.148Z,17.30
2023-02-14T20:43:54.526Z,18.40
2023-02-14T20:46:23.802Z,17.17
2023-02-14T20:48:54.166Z,18.00
2023-02-14T20:51:23.092Z,20.95
2023-02-14T20:53:52.854Z,24.05
2023-02-14T20:56:22.813Z,28.58
2023-02-14T20:58:51.747Z,27.17
2023-02-14T21:01:22.260Z,29.02
2023-02-14T21:03:52.428Z,27.50
2023-02-14T21:06:23.458Z,25.45
2023-02-14T21:08:53.509Z,26.10
2023-02-14T21:11:24.458Z,24.08
2023-02-14T21:13:58.065Z,25.42
2023-02-14T21:16:28.035Z,24.52
2023-02-14T21:18:59.115Z,24.30
2023-02-14T21:21:32.612Z,24.25
2023-02-14T21:24:03.769Z,23.10
2023-02-14T21:26:32.332Z,24.25
2023-02-14T21:29:00.670Z,23.45
2023-02-14T21:31:29.066Z,23.45
2023-02-14T21:33:59.778Z,23.35
2023-02-14T21:36:30.331Z,23.43
2023-02-14T21:39:01.170Z,23.00
2023-02-14T21:41:31.485Z,23.43
2023-02-14T21:44:02.844Z,23.47
2023-02-14T21:46:33.444Z,21.88
2023-02-14T21:49:21.924Z,21.50
2023-02-14T21:51:50.790Z,21.08
2023-02-14T21:54:20.624Z,22.73
2023-02-14T21:56:49.326Z,19.55
2023-02-14T21:59:17.752Z,18.67
2023-02-14T22:01:45.992Z,17.35
2023-02-14T22:04:14.326Z,16.07
2023-02-14T22:06:43.669Z,14.43
2023-02-14T22:09:17.466Z,13.80
2023-02-14T22:11:48.616Z,15.30
2023-02-14T22:14:17.217Z,10.43
2023-02-14T22:16:45.629Z,11.50
2023-02-14T22:19:16.236Z,10.93
2023-02-14T22:21:44.996Z,10.33
2023-02-14T22:24:13.663Z,11.32
2023-02-14T22:26:41.945Z,10.05
2023-02-14T22:29:13.497Z,11.82
2023-02-14T22:31:43.347Z,10.50
2023-02-14T22:34:14.755Z,9.60
2023-02-14T22:36:43.099Z,10.07
2023-02-14T22:39:14.572Z,10.60
2023-02-14T22:41:43.371Z,11.02
2023-02-14T22:44:13.837Z,10.90
2023-02-14T22:46:42.508Z,9.63
2023-02-14T22:49:10.980Z,10.23
2023-02-14T22:51:40.627Z,10.52
2023-02-14T22:54:12.302Z,10.45
2023-02-14T22:56:42.844Z,10.80
2023-02-14T22:59:17.244Z,10.27
2023-02-14T23:01:46.147Z,11.97
2023-02-14T23:04:16.052Z,12.10
2023-02-14T23:06:44.548Z,17.75
2023-02-14T23:09:13.833Z,20.75
2023-02-14T23:11:43.717Z,17.67
2023-02-14T23:14:30.537Z,15.50
2023-02-14T23:17:18.089Z,17.15
2023-02-14T23:20:04.274Z,18.55
2023-02-14T23:22:34.734Z,21.13
2023-02-14T23:25:05.258Z,19.58
2023-02-14T23:27:35.804Z,19.20
2023-02-14T23:30:05.515Z,17.73
2023-02-14T23:32:35.632Z,17.85
2023-02-14T23:35:04.086Z,16.23
2023-02-14T23:37:33.689Z,16.00
2023-02-14T23:40:02.093Z,17.50
2023-02-14T23:42:30.338Z,14.82
2023-02-14T23:45:18.853Z,15.27
2023-02-14T23:47:48.442Z,14.77
2023-02-14T23:50:17.376Z,13.20
2023-02-14T23:52:45.683Z,13.82
2023-02-14T23:55:14.101Z,14.00
2023-02-14T23:57:42.447Z,12.60
